createdAt,value
2019-02-06T00:00:46.804Z,47.98
2019-02-06T00:03:16.682Z,46.13
2019-02-06T00:05:44.993Z,55.92
2019-02-06T00:08:13.253Z,54.75
2019-02-06T00:10:41.518Z,49.65
2019-02-06T00:13:09.781Z,46.10
2019-02-06T00:15:38.042Z,55.23
2019-02-06T00:18:06.796Z,54.63
2019-02-06T00:20:35.116Z,59.15
2019-02-06T00:23:03.459Z,55.10
2019-02-06T00:25:31.732Z,49.05
2019-02-06T00:27:59.974Z,52.70
2019-02-06T00:30:28.211Z,48.17
2019-02-06T00:32:56.487Z,57.67
2019-02-06T00:35:26.130Z,57.45
2019-02-06T00:37:54.537Z,48.78
2019-02-06T00:40:22.821Z,52.38
2019-02-06T00:42:51.083Z,56.65
2019-02-06T00:45:19.395Z,48.25
2019-02-06T00:47:47.665Z,46.23
2019-02-06T00:50:16.389Z,54.70
2019-02-06T00:52:44.643Z,59.48
2019-02-06T00:55:14.232Z,52.58
2019-02-06T00:57:42.488Z,56.42
2019-02-06T01:00:22.269Z,52.10
2019-02-06T01:02:51.679Z,54.30
2019-02-06T01:05:20.293Z,51.77
2019-02-06T01:07:48.550Z,49.20
2019-02-06T01:10:19.033Z,56.88
2019-02-06T01:12:47.318Z,53.85
2019-02-06T01:15:15.577Z,53.90
2019-02-06T01:17:43.863Z,56.70
2019-02-06T01:20:15.204Z,50.78
2019-02-06T01:22:43.488Z,48.92
2019-02-06T01:25:13.883Z,57.43
2019-02-06T01:27:42.150Z,57.95
2019-02-06T01:30:22.093Z,60.50
2019-02-06T01:32:50.378Z,50.85
2019-02-06T01:35:19.009Z,55.83
2019-02-06T01:37:47.251Z,59.03
2019-02-06T01:40:20.045Z,51.35
2019-02-06T01:42:48.314Z,52.67
2019-02-06T01:45:18.628Z,57.30
2019-02-06T01:47:46.882Z,52.73
2019-02-06T01:50:17.134Z,51.35
2019-02-06T01:52:45.419Z,63.30
2019-02-06T01:55:15.001Z,49.77
2019-02-06T01:57:43.263Z,53.15
2019-02-06T02:00:14.777Z,55.75
2019-02-06T02:02:43.014Z,66.55
2019-02-06T02:05:11.679Z,49.58
2019-02-06T02:07:39.934Z,61.37
2019-02-06T02:10:10.313Z,52.67
2019-02-06T02:12:38.659Z,54.33
2019-02-06T02:15:10.101Z,50.63
2019-02-06T02:17:38.336Z,49.70
2019-02-06T02:20:12.754Z,51.05
2019-02-06T02:22:40.994Z,54.40
2019-02-06T02:25:09.267Z,52.98
2019-02-06T02:27:37.516Z,48.68
2019-02-06T02:30:09.377Z,49.95
2019-02-06T02:32:37.731Z,53.58
2019-02-06T02:35:07.498Z,51.63
2019-02-06T02:37:35.836Z,52.10
2019-02-06T02:40:06.929Z,53.08
2019-02-06T02:42:35.190Z,57.98
2019-02-06T02:45:04.439Z,47.80
2019-02-06T02:47:32.717Z,52.08
2019-02-06T02:50:01.426Z,53.65
2019-02-06T02:52:29.669Z,47.60
2019-02-06T02:54:57.948Z,52.35
2019-02-06T02:57:26.187Z,46.23
2019-02-06T02:59:54.447Z,51.83
2019-02-06T03:02:30.343Z,52.45
2019-02-06T03:04:59.041Z,43.05
2019-02-06T03:07:27.302Z,55.75
2019-02-06T03:09:55.560Z,51.27
2019-02-06T03:12:23.813Z,49.20
2019-02-06T03:14:52.061Z,53.83
2019-02-06T03:17:20.321Z,50.40
2019-02-06T03:19:48.575Z,43.17
2019-02-06T03:22:17.416Z,52.20
2019-02-06T03:24:45.672Z,51.18
2019-02-06T03:27:14.001Z,46.80
2019-02-06T03:29:42.260Z,52.88
2019-02-06T03:32:10.528Z,50.90
2019-02-06T03:34:38.769Z,55.50
2019-02-06T03:37:07.010Z,48.63
2019-02-06T03:39:35.280Z,50.08
2019-02-06T03:42:03.518Z,50.43
2019-02-06T03:44:31.789Z,57.60
2019-02-06T03:47:00.025Z,54.42
2019-02-06T03:49:28.280Z,53.13
2019-02-06T03:51:56.521Z,50.20
2019-02-06T03:54:24.795Z,45.10
2019-02-06T03:56:53.038Z,44.27
2019-02-06T03:59:21.309Z,45.83
2019-02-06T04:01:49.546Z,47.85
2019-02-06T04:04:17.812Z,44.58
2019-02-06T04:06:56.412Z,42.60
2019-02-06T04:09:16.056Z,45.73
2019-02-06T04:11:44.781Z,49.23
2019-02-06T04:14:13.019Z,43.02
2019-02-06T04:16:41.283Z,45.90
2019-02-06T04:19:09.532Z,42.00
2019-02-06T04:21:37.820Z,43.25
2019-02-06T04:24:06.069Z,41.08
2019-02-06T04:26:34.311Z,45.98
2019-02-06T04:29:02.842Z,43.98
2019-02-06T04:31:31.090Z,39.05
2019-02-06T04:33:59.351Z,44.05
2019-02-06T04:36:27.598Z,47.50
2019-02-06T04:38:55.850Z,44.90
2019-02-06T04:41:24.090Z,45.60
2019-02-06T04:43:52.330Z,41.30
2019-02-06T04:46:20.592Z,41.63
2019-02-06T04:48:48.827Z,48.25
2019-02-06T04:51:17.091Z,48.78
2019-02-06T04:53:45.373Z,44.48
2019-02-06T04:56:13.605Z,44.67
2019-02-06T04:58:41.865Z,45.20
2019-02-06T05:01:10.107Z,45.00
2019-02-06T05:03:38.384Z,45.00
2019-02-06T05:06:06.637Z,42.78
2019-02-06T05:08:34.943Z,54.18
2019-02-06T05:11:03.205Z,52.00
2019-02-06T05:13:31.453Z,43.15
2019-02-06T05:15:59.730Z,48.63
2019-02-06T05:18:28.055Z,47.33
2019-02-06T05:20:56.305Z,45.20
2019-02-06T05:23:24.550Z,50.78
2019-02-06T05:25:52.802Z,41.70
2019-02-06T05:28:21.047Z,47.13
2019-02-06T05:30:49.335Z,52.17
2019-02-06T05:33:17.635Z,46.88
2019-02-06T05:35:46.388Z,49.75
2019-02-06T05:38:14.644Z,50.58
2019-02-06T05:40:42.991Z,50.80
2019-02-06T05:43:11.250Z,50.08
2019-02-06T05:45:39.501Z,46.63
2019-02-06T05:48:07.757Z,45.70
2019-02-06T05:50:35.998Z,39.70
2019-02-06T05:53:04.649Z,51.28
2019-02-06T05:55:32.880Z,42.78
2019-02-06T05:58:01.146Z,49.55
2019-02-06T06:00:31.021Z,43.95
2019-02-06T06:02:59.301Z,41.73
2019-02-06T06:05:27.545Z,46.13
2019-02-06T06:07:55.793Z,46.63
2019-02-06T06:10:24.421Z,46.23
2019-02-06T06:12:52.674Z,46.35
2019-02-06T06:15:21.203Z,52.15
2019-02-06T06:17:49.447Z,52.67
2019-02-06T06:20:19.131Z,44.15
2019-02-06T06:22:47.472Z,52.10
2019-02-06T06:25:21.078Z,48.15
2019-02-06T06:27:49.640Z,46.33
2019-02-06T06:30:21.075Z,45.10
2019-02-06T06:32:49.335Z,55.20
2019-02-06T06:35:17.610Z,50.73
2019-02-06T06:37:57.602Z,58.92
2019-02-06T06:40:21.220Z,49.08
2019-02-06T06:42:49.490Z,47.03
2019-02-06T06:45:24.891Z,46.68
2019-02-06T06:47:53.215Z,50.95
2019-02-06T06:50:23.498Z,43.15
2019-02-06T06:52:52.032Z,52.60
2019-02-06T06:55:20.348Z,50.70
2019-02-06T06:57:48.590Z,49.58
2019-02-06T07:00:19.638Z,53.58
2019-02-06T07:02:47.887Z,44.53
2019-02-06T07:05:16.523Z,44.83
2019-02-06T07:07:44.855Z,52.20
2019-02-06T07:10:15.217Z,55.40
2019-02-06T07:12:43.674Z,55.43
2019-02-06T07:15:20.572Z,48.50
2019-02-06T07:17:48.840Z,46.30
2019-02-06T07:20:18.619Z,45.40
2019-02-06T07:22:46.862Z,51.20
2019-02-06T07:25:19.272Z,47.55
2019-02-06T07:27:47.533Z,49.35
2019-02-06T07:30:24.567Z,45.88
2019-02-06T07:32:52.869Z,54.33
2019-02-06T07:35:21.196Z,48.52
2019-02-06T07:37:49.449Z,50.35
2019-02-06T07:40:18.079Z,49.08
2019-02-06T07:42:46.336Z,50.70
2019-02-06T07:45:16.675Z,53.15
2019-02-06T07:47:44.944Z,47.23
2019-02-06T07:50:16.681Z,45.10
2019-02-06T07:52:44.945Z,53.50
2019-02-06T07:55:14.050Z,50.20
2019-02-06T07:57:42.317Z,52.83
2019-02-06T08:00:10.626Z,46.60
2019-02-06T08:02:38.902Z,48.33
2019-02-06T08:05:10.435Z,52.20
2019-02-06T08:07:38.674Z,43.75
2019-02-06T08:10:10.203Z,51.53
2019-02-06T08:12:38.452Z,45.52
2019-02-06T08:15:09.998Z,48.98
2019-02-06T08:17:38.243Z,48.60
2019-02-06T08:20:10.017Z,48.60
2019-02-06T08:22:38.279Z,44.58
2019-02-06T08:25:10.075Z,51.10
2019-02-06T08:27:38.324Z,43.48
2019-02-06T08:30:12.599Z,42.65
2019-02-06T08:32:40.851Z,51.10
2019-02-06T08:35:10.652Z,48.40
2019-02-06T08:37:38.922Z,49.00
2019-02-06T08:40:10.086Z,44.77
2019-02-06T08:42:38.348Z,49.03
2019-02-06T08:45:10.112Z,47.88
2019-02-06T08:47:38.380Z,48.40
2019-02-06T08:50:09.894Z,44.05
2019-02-06T08:52:38.171Z,51.92
2019-02-06T08:55:10.034Z,42.27
2019-02-06T08:57:38.291Z,48.87
2019-02-06T09:00:09.792Z,49.38
2019-02-06T09:02:38.091Z,52.50
2019-02-06T09:05:08.396Z,43.87
2019-02-06T09:07:36.658Z,46.58
2019-02-06T09:10:08.556Z,45.65
2019-02-06T09:12:36.811Z,46.77
2019-02-06T09:15:06.589Z,46.40
2019-02-06T09:17:34.829Z,47.53
2019-02-06T09:20:03.198Z,44.70
2019-02-06T09:22:31.497Z,40.88
2019-02-06T09:25:00.323Z,48.02
2019-02-06T09:27:28.650Z,43.15
2019-02-06T09:29:56.912Z,41.85
2019-02-06T09:32:25.232Z,44.53
2019-02-06T09:34:53.500Z,41.35
2019-02-06T09:37:21.739Z,43.48
2019-02-06T09:39:50.058Z,41.20
2019-02-06T09:42:18.600Z,39.70
2019-02-06T09:44:46.830Z,46.80
2019-02-06T09:47:15.098Z,37.48
2019-02-06T09:49:43.416Z,44.03
2019-02-06T09:52:11.762Z,47.98
2019-02-06T09:54:40.020Z,39.13
2019-02-06T09:57:08.243Z,39.08
2019-02-06T09:59:36.873Z,42.88
2019-02-06T10:02:05.123Z,42.95
2019-02-06T10:04:33.388Z,44.25
2019-02-06T10:07:01.627Z,48.08
2019-02-06T10:09:29.867Z,44.45
2019-02-06T10:11:58.128Z,44.80
2019-02-06T10:14:26.391Z,38.25
2019-02-06T10:16:54.913Z,42.53
2019-02-06T10:19:23.181Z,39.55
2019-02-06T10:21:53.710Z,38.58
2019-02-06T10:24:21.400Z,41.73
2019-02-06T10:26:49.662Z,40.40
2019-02-06T10:29:17.897Z,40.20
2019-02-06T10:31:46.208Z,35.20
2019-02-06T10:34:14.462Z,36.25
2019-02-06T10:36:42.704Z,41.20
2019-02-06T10:39:10.974Z,37.17
2019-02-06T10:41:39.210Z,39.53
2019-02-06T10:44:07.493Z,38.67
2019-02-06T10:46:35.769Z,38.80
2019-02-06T10:49:04.368Z,37.50
2019-02-06T10:51:32.618Z,37.08
2019-02-06T10:54:00.869Z,38.98
2019-02-06T10:56:29.118Z,38.63
2019-02-06T10:58:57.374Z,34.92
2019-02-06T11:01:25.696Z,40.65
2019-02-06T11:03:53.944Z,33.67
2019-02-06T11:06:22.557Z,35.90
2019-02-06T11:08:50.813Z,35.88
2019-02-06T11:11:19.073Z,34.27
2019-02-06T11:13:49.738Z,35.40
2019-02-06T11:16:17.293Z,38.53
2019-02-06T11:18:45.554Z,33.73
2019-02-06T11:21:13.829Z,33.28
2019-02-06T11:23:42.158Z,36.50
2019-02-06T11:26:10.443Z,28.12
2019-02-06T11:28:38.686Z,36.00
2019-02-06T11:31:07.025Z,31.60
2019-02-06T11:33:35.284Z,37.88
2019-02-06T11:36:03.546Z,37.67
2019-02-06T11:38:32.173Z,39.33
2019-02-06T11:41:00.405Z,31.95
2019-02-06T11:43:28.659Z,32.13
2019-02-06T11:45:56.918Z,33.95
2019-02-06T11:48:25.160Z,36.48
2019-02-06T11:50:53.683Z,31.90
2019-02-06T11:53:22.517Z,33.38
2019-02-06T11:55:51.143Z,40.23
2019-02-06T11:58:19.385Z,33.02
2019-02-06T12:01:04.541Z,31.10
2019-02-06T12:03:32.804Z,38.92
2019-02-06T12:06:01.038Z,37.33
2019-02-06T12:08:31.189Z,31.85
2019-02-06T12:10:59.594Z,35.33
2019-02-06T12:13:27.841Z,35.43
2019-02-06T12:15:56.092Z,32.33
2019-02-06T12:18:24.364Z,35.43
2019-02-06T12:20:52.675Z,41.90
2019-02-06T12:23:31.642Z,35.20
2019-02-06T12:25:50.885Z,35.28
2019-02-06T12:28:19.166Z,37.17
2019-02-06T12:30:47.466Z,38.10
2019-02-06T12:33:15.725Z,33.05
2019-02-06T12:35:43.969Z,28.45
2019-02-06T12:38:12.213Z,30.52
2019-02-06T12:40:40.492Z,32.63
2019-02-06T12:43:10.510Z,27.40
2019-02-06T12:45:39.138Z,29.75
2019-02-06T12:48:07.414Z,36.58
2019-02-06T12:50:35.729Z,34.03
2019-02-06T12:53:04.252Z,31.05
2019-02-06T12:55:38.473Z,37.08
2019-02-06T12:58:07.868Z,26.93
2019-02-06T13:00:41.669Z,33.08
2019-02-06T13:03:09.928Z,31.82
2019-02-06T13:05:38.237Z,29.12
2019-02-06T13:08:06.992Z,28.02
2019-02-06T13:10:35.259Z,30.15
2019-02-06T13:13:03.521Z,27.27
2019-02-06T13:15:32.185Z,26.15
2019-02-06T13:18:00.436Z,25.20
2019-02-06T13:20:30.844Z,29.35
2019-02-06T13:22:59.107Z,26.12
2019-02-06T13:25:27.376Z,31.15
2019-02-06T13:27:55.617Z,27.42
2019-02-06T13:30:27.111Z,23.30
2019-02-06T13:32:55.442Z,25.02
2019-02-06T13:35:23.686Z,23.85
2019-02-06T13:37:51.946Z,26.55
2019-02-06T13:40:25.948Z,25.10
2019-02-06T13:42:54.237Z,28.70
2019-02-06T13:45:27.785Z,29.25
2019-02-06T13:47:56.044Z,29.48
2019-02-06T13:50:24.729Z,27.20
2019-02-06T13:52:53.004Z,29.87
2019-02-06T13:55:21.234Z,27.48
2019-02-06T13:57:49.502Z,24.92
2019-02-06T14:00:35.305Z,25.72
2019-02-06T14:03:03.598Z,27.27
2019-02-06T14:05:32.316Z,28.05
2019-02-06T14:08:21.611Z,20.25
2019-02-06T14:10:58.507Z,18.77
2019-02-06T14:13:19.841Z,23.00
2019-02-06T14:15:48.463Z,15.20
2019-02-06T14:18:16.798Z,20.65
2019-02-06T14:20:46.487Z,15.83
2019-02-06T14:23:17.768Z,14.75
2019-02-06T14:26:10.593Z,11.40
2019-02-06T14:28:47.972Z,15.00
2019-02-06T14:31:39.039Z,17.42
2019-02-06T14:34:10.549Z,16.67
2019-02-06T14:36:50.790Z,17.67
2019-02-06T14:39:22.317Z,15.48
2019-02-06T14:41:53.814Z,16.52
2019-02-06T14:44:37.189Z,13.70
2019-02-06T14:47:23.071Z,13.62
2019-02-06T14:50:00.213Z,19.45
2019-02-06T14:52:40.781Z,19.75
2019-02-06T14:55:18.269Z,22.30
2019-02-06T14:57:53.222Z,27.75
2019-02-06T15:00:36.423Z,22.22
2019-02-06T15:03:27.358Z,25.92
2019-02-06T15:06:31.094Z,20.82
2019-02-06T15:09:14.957Z,27.82
2019-02-06T15:11:49.405Z,27.93
2019-02-06T15:14:32.699Z,25.37
2019-02-06T15:17:23.738Z,21.52
2019-02-06T15:20:16.231Z,27.40
2019-02-06T15:22:59.655Z,28.57
2019-02-06T15:25:47.843Z,26.77
2019-02-06T15:28:38.438Z,24.25
2019-02-06T15:31:12.624Z,27.55
2019-02-06T15:34:19.265Z,28.07
2019-02-06T15:37:07.418Z,28.65
2019-02-06T15:39:53.976Z,32.23
2019-02-06T15:42:31.159Z,35.38
2019-02-06T15:45:18.984Z,33.95
2019-02-06T15:47:59.710Z,31.17
2019-02-06T15:50:43.330Z,32.00
2019-02-06T15:53:23.081Z,27.80
2019-02-06T15:56:03.039Z,29.23
2019-02-06T15:58:40.525Z,25.92
2019-02-06T16:01:43.261Z,28.12
2019-02-06T16:04:28.868Z,34.92
2019-02-06T16:07:03.068Z,30.62
2019-02-06T16:09:40.436Z,33.73
2019-02-06T16:12:33.096Z,31.00
2019-02-06T16:15:10.373Z,31.37
2019-02-06T16:18:03.057Z,30.10
2019-02-06T16:20:40.197Z,33.05
2019-02-06T16:23:29.716Z,30.32
2019-02-06T16:26:06.959Z,34.50
2019-02-06T16:28:53.860Z,32.73
2019-02-06T16:31:43.548Z,38.98
2019-02-06T16:34:17.968Z,33.30
2019-02-06T16:36:55.509Z,34.43
2019-02-06T16:39:27.113Z,29.90
2019-02-06T16:42:16.597Z,32.75
2019-02-06T16:44:51.117Z,30.12
2019-02-06T16:47:25.477Z,32.93
2019-02-06T16:50:16.581Z,34.65
2019-02-06T16:53:03.167Z,35.83
2019-02-06T16:55:55.723Z,39.40
2019-02-06T16:58:54.411Z,34.65
2019-02-06T17:01:38.132Z,32.75
2019-02-06T17:04:30.321Z,35.28
2019-02-06T17:07:16.553Z,28.70
2019-02-06T17:10:13.722Z,32.42
2019-02-06T17:15:46.221Z,31.35
2019-02-06T17:18:37.186Z,28.62
2019-02-06T17:21:09.076Z,29.45
2019-02-06T17:23:59.788Z,33.02
2019-02-06T17:26:36.783Z,32.85
2019-02-06T17:29:25.553Z,28.10
2019-02-06T17:32:11.346Z,30.40
2019-02-06T17:34:45.538Z,28.23
2019-02-06T17:37:17.076Z,27.42
2019-02-06T17:40:09.925Z,30.57
2019-02-06T17:42:53.299Z,26.68
2019-02-06T17:45:24.812Z,34.43
2019-02-06T17:48:15.855Z,29.25
2019-02-06T17:50:47.364Z,31.00
2019-02-06T17:53:27.405Z,34.08
2019-02-06T17:55:55.637Z,30.50
2019-02-06T17:58:23.913Z,30.68
2019-02-06T18:00:55.375Z,33.70
2019-02-06T18:03:23.634Z,28.57
2019-02-06T18:05:51.968Z,28.00
2019-02-06T18:08:20.202Z,33.88
2019-02-06T18:10:48.445Z,31.70
2019-02-06T18:13:17.175Z,30.82
2019-02-06T18:15:45.447Z,29.02
2019-02-06T18:18:13.686Z,30.10
2019-02-06T18:20:42.332Z,26.75
2019-02-06T18:23:10.594Z,29.95
2019-02-06T18:25:38.842Z,31.52
2019-02-06T18:28:07.085Z,25.92
2019-02-06T18:30:35.315Z,32.20
2019-02-06T18:33:03.660Z,27.15
2019-02-06T18:35:31.983Z,28.62
2019-02-06T18:38:00.335Z,29.63
2019-02-06T18:40:28.854Z,24.57
2019-02-06T18:42:57.423Z,24.95
2019-02-06T18:45:27.821Z,27.87
2019-02-06T18:48:02.538Z,28.27
2019-02-06T18:50:32.712Z,28.30
2019-02-06T18:53:01.224Z,32.10
2019-02-06T18:55:29.529Z,29.87
2019-02-06T18:57:58.065Z,30.70
2019-02-06T19:00:32.131Z,29.70
2019-02-06T19:02:59.847Z,32.38
2019-02-06T19:05:36.870Z,31.97
2019-02-06T19:08:06.055Z,34.50
2019-02-06T19:10:34.361Z,37.23
2019-02-06T19:13:02.810Z,31.30
2019-02-06T19:15:31.458Z,31.70
2019-02-06T19:17:59.688Z,35.75
2019-02-06T19:20:28.029Z,33.20
2019-02-06T19:22:56.261Z,35.35
2019-02-06T19:25:24.609Z,33.05
2019-02-06T19:27:52.949Z,35.33
2019-02-06T19:30:27.436Z,34.55
2019-02-06T19:32:56.107Z,35.10
2019-02-06T19:35:24.434Z,32.67
2019-02-06T19:37:52.760Z,42.40
2019-02-06T19:40:21.092Z,33.18
2019-02-06T19:42:59.065Z,33.23
2019-02-06T19:45:19.352Z,35.38
2019-02-06T19:47:47.674Z,35.68
2019-02-06T19:50:30.214Z,35.73
2019-02-06T19:52:58.578Z,32.75
2019-02-06T19:55:26.886Z,30.20
2019-02-06T19:57:55.138Z,32.53
2019-02-06T20:00:25.993Z,34.67
2019-02-06T20:02:54.311Z,36.28
2019-02-06T20:05:23.045Z,31.20
2019-02-06T20:07:51.288Z,28.42
2019-02-06T20:10:37.718Z,35.63
2019-02-06T20:13:11.441Z,28.67
2019-02-06T20:15:36.184Z,30.77
2019-02-06T20:18:04.496Z,29.55
2019-02-06T20:20:33.112Z,32.88
2019-02-06T20:23:01.369Z,32.53
2019-02-06T20:25:29.686Z,26.65
2019-02-06T20:27:57.943Z,33.48
2019-02-06T20:30:27.958Z,33.25
2019-02-06T20:32:56.360Z,32.10
2019-02-06T20:35:25.357Z,34.15
2019-02-06T20:37:54.328Z,30.70
2019-02-06T20:40:25.892Z,35.95
2019-02-06T20:42:54.228Z,34.95
2019-02-06T20:45:22.497Z,30.23
2019-02-06T20:47:50.759Z,31.97
2019-02-06T20:50:35.401Z,36.73
2019-02-06T20:53:04.186Z,38.78
2019-02-06T20:55:32.440Z,34.45
2019-02-06T20:58:00.784Z,35.85
2019-02-06T21:00:34.672Z,40.20
2019-02-06T21:03:02.935Z,36.03
2019-02-06T21:05:31.182Z,36.08
2019-02-06T21:07:59.935Z,33.92
2019-02-06T21:10:30.774Z,34.13
2019-02-06T21:12:59.115Z,40.92
2019-02-06T21:15:27.434Z,38.73
2019-02-06T21:17:55.657Z,38.40
2019-02-06T21:20:24.751Z,39.50
2019-02-06T21:22:53.024Z,38.05
2019-02-06T21:25:23.196Z,32.63
2019-02-06T21:27:51.576Z,35.80
2019-02-06T21:30:22.743Z,40.45
2019-02-06T21:33:10.426Z,33.10
2019-02-06T21:35:39.237Z,39.75
2019-02-06T21:38:07.553Z,35.70
2019-02-06T21:40:36.938Z,41.42
2019-02-06T21:43:26.262Z,37.40
2019-02-06T21:45:54.505Z,41.50
2019-02-06T21:48:22.817Z,36.60
2019-02-06T21:50:51.053Z,40.95
2019-02-06T21:53:19.305Z,33.70
2019-02-06T21:55:47.548Z,40.08
2019-02-06T21:58:15.813Z,32.28
2019-02-06T22:00:44.145Z,40.30
2019-02-06T22:03:12.750Z,35.68
2019-02-06T22:05:41.043Z,34.78
2019-02-06T22:08:09.404Z,36.05
2019-02-06T22:10:37.646Z,40.80
2019-02-06T22:13:05.884Z,38.98
2019-02-06T22:15:34.141Z,38.38
2019-02-06T22:18:02.399Z,34.92
2019-02-06T22:20:30.660Z,38.38
2019-02-06T22:22:58.930Z,38.58
2019-02-06T22:25:27.294Z,37.63
2019-02-06T22:27:55.571Z,34.43
2019-02-06T22:30:28.908Z,41.23
2019-02-06T22:32:57.257Z,39.85
2019-02-06T22:35:25.900Z,43.13
2019-02-06T22:37:54.149Z,37.85
2019-02-06T22:40:26.970Z,36.98
2019-02-06T22:42:55.238Z,41.37
2019-02-06T22:45:28.347Z,38.53
2019-02-06T22:47:56.674Z,34.20
2019-02-06T22:50:28.765Z,35.55
2019-02-06T22:52:57.088Z,37.33
2019-02-06T22:55:25.380Z,41.28
2019-02-06T22:57:53.709Z,45.23
2019-02-06T23:00:44.564Z,42.62
2019-02-06T23:03:12.813Z,46.13
2019-02-06T23:05:41.061Z,37.35
2019-02-06T23:08:09.402Z,44.60
2019-02-06T23:10:57.099Z,46.68
2019-02-06T23:13:25.369Z,38.50
2019-02-06T23:15:53.622Z,36.80
2019-02-06T23:18:21.851Z,38.88
2019-02-06T23:20:50.116Z,37.80
2019-02-06T23:23:18.346Z,36.13
2019-02-06T23:25:46.764Z,39.65
2019-02-06T23:28:15.093Z,42.90
2019-02-06T23:30:43.349Z,44.03
2019-02-06T23:33:11.612Z,37.15
2019-02-06T23:35:41.628Z,33.75
2019-02-06T23:38:09.983Z,34.08
2019-02-06T23:40:38.217Z,36.33
2019-02-06T23:43:06.758Z,34.65
2019-02-06T23:45:34.998Z,31.77
2019-02-06T23:48:03.285Z,33.65
2019-02-06T23:50:31.544Z,34.95
2019-02-06T23:52:59.862Z,38.38
2019-02-06T23:55:28.136Z,38.30
2019-02-06T23:57:56.385Z,30.85
